createdAt,value
2022-10-31T00:00:55.991Z,13.88
2022-10-31T00:03:22.632Z,14.00
2022-10-31T00:05:50.734Z,15.38
2022-10-31T00:08:18.479Z,14.80
2022-10-31T00:10:46.295Z,17.70
2022-10-31T00:13:14.885Z,14.85
2022-10-31T00:15:41.856Z,13.60
2022-10-31T00:18:09.971Z,12.88
2022-10-31T00:20:37.307Z,14.70
2022-10-31T00:23:04.939Z,14.85
2022-10-31T00:25:36.622Z,13.27
2022-10-31T00:28:04.486Z,16.27
2022-10-31T00:30:31.115Z,13.30
2022-10-31T00:32:58.154Z,15.95
2022-10-31T00:35:25.055Z,11.55
2022-10-31T00:37:52.611Z,15.25
2022-10-31T00:40:19.167Z,13.30
2022-10-31T00:42:45.922Z,15.60
2022-10-31T00:45:12.728Z,17.17
2022-10-31T00:47:39.392Z,13.65
2022-10-31T00:50:06.878Z,14.07
2022-10-31T00:52:33.745Z,19.27
2022-10-31T00:55:00.470Z,16.25
2022-10-31T00:57:27.060Z,15.20
2022-10-31T00:59:53.657Z,18.17
2022-10-31T01:02:20.462Z,16.85
2022-10-31T01:04:47.282Z,15.73
2022-10-31T01:07:14.940Z,14.73
2022-10-31T01:09:41.795Z,13.63
2022-10-31T01:12:09.166Z,17.98
2022-10-31T01:14:35.729Z,20.42
2022-10-31T01:17:02.261Z,14.60
2022-10-31T01:19:28.822Z,15.10
2022-10-31T01:21:56.561Z,16.35
2022-10-31T01:24:23.338Z,13.77
2022-10-31T01:26:49.879Z,17.85
2022-10-31T01:29:16.450Z,15.88
2022-10-31T01:31:43.078Z,16.65
2022-10-31T01:34:15.086Z,15.25
2022-10-31T01:36:42.327Z,16.85
2022-10-31T01:39:15.510Z,15.80
2022-10-31T01:41:44.945Z,16.45
2022-10-31T01:44:14.582Z,13.07
2022-10-31T01:46:54.750Z,15.13
2022-10-31T01:49:38.426Z,14.10
2022-10-31T01:52:28.259Z,17.52
2022-10-31T01:55:03.856Z,12.02
2022-10-31T01:57:32.743Z,14.00
2022-10-31T02:00:02.685Z,14.25
2022-10-31T02:02:31.725Z,15.35
2022-10-31T02:05:00.524Z,15.82
2022-10-31T02:07:37.580Z,18.25
2022-10-31T02:10:04.654Z,16.10
2022-10-31T02:12:33.253Z,15.27
2022-10-31T02:15:01.297Z,12.30
2022-10-31T02:17:29.509Z,15.05
2022-10-31T02:20:19.429Z,15.50
2022-10-31T02:23:04.124Z,13.98
2022-10-31T02:25:56.814Z,15.53
2022-10-31T02:28:46.253Z,15.43
2022-10-31T02:31:41.138Z,15.18
2022-10-31T02:34:19.345Z,12.98
2022-10-31T02:37:05.938Z,17.08
2022-10-31T02:39:54.030Z,12.63
2022-10-31T02:42:34.989Z,13.77
2022-10-31T02:45:32.234Z,13.48
2022-10-31T02:48:04.413Z,13.05
2022-10-31T02:50:37.602Z,14.55
2022-10-31T02:53:04.395Z,12.95
2022-10-31T02:55:30.899Z,14.90
2022-10-31T02:58:06.156Z,11.95
2022-10-31T03:00:43.317Z,13.07
2022-10-31T03:03:35.829Z,13.32
2022-10-31T03:06:13.840Z,17.15
2022-10-31T03:09:25.766Z,14.73
2022-10-31T03:12:08.365Z,11.77
2022-10-31T03:15:16.421Z,15.20
2022-10-31T03:18:11.081Z,16.70
2022-10-31T03:21:05.911Z,14.45
2022-10-31T03:23:34.949Z,13.25
2022-10-31T03:26:05.751Z,13.23
2022-10-31T03:28:50.079Z,10.48
2022-10-31T03:31:19.294Z,11.88
2022-10-31T03:33:47.020Z,13.20
2022-10-31T03:36:16.227Z,14.55
2022-10-31T03:38:45.900Z,10.23
2022-10-31T03:41:19.120Z,12.60
2022-10-31T03:43:53.182Z,18.38
2022-10-31T03:46:19.858Z,13.73
2022-10-31T03:48:46.557Z,11.07
2022-10-31T03:51:44.663Z,14.38
2022-10-31T03:54:36.834Z,15.63
2022-10-31T03:57:30.583Z,15.02
2022-10-31T04:00:04.610Z,13.27
2022-10-31T04:02:34.585Z,13.15
2022-10-31T04:05:02.334Z,10.02
2022-10-31T04:07:34.242Z,12.32
2022-10-31T04:10:03.331Z,13.80
2022-10-31T04:12:31.978Z,12.10
2022-10-31T04:14:59.752Z,15.07
2022-10-31T04:17:30.418Z,12.38
2022-10-31T04:19:59.546Z,13.30
2022-10-31T04:22:26.092Z,11.18
2022-10-31T04:24:52.860Z,16.77
2022-10-31T04:27:19.441Z,12.95
2022-10-31T04:29:48.335Z,13.50
2022-10-31T04:32:17.391Z,12.05
2022-10-31T04:34:43.916Z,13.75
2022-10-31T04:37:10.441Z,13.95
2022-10-31T04:39:37.156Z,11.23
2022-10-31T04:42:03.835Z,13.68
2022-10-31T04:44:30.374Z,16.75
2022-10-31T04:46:56.897Z,12.45
2022-10-31T04:49:24.614Z,14.13
2022-10-31T04:51:51.242Z,13.55
2022-10-31T04:54:18.009Z,13.65
2022-10-31T04:56:44.660Z,16.63
2022-10-31T04:59:11.186Z,11.68
2022-10-31T05:01:37.933Z,19.23
2022-10-31T05:04:04.766Z,12.50
2022-10-31T05:06:31.347Z,15.23
2022-10-31T05:08:57.886Z,14.15
2022-10-31T05:11:24.618Z,14.55
2022-10-31T05:13:51.301Z,10.43
2022-10-31T05:16:18.098Z,17.70
2022-10-31T05:18:44.784Z,13.43
2022-10-31T05:21:11.566Z,10.65
2022-10-31T05:23:38.289Z,13.45
2022-10-31T05:26:05.174Z,14.38
2022-10-31T05:28:31.720Z,10.48
2022-10-31T05:30:58.276Z,10.77
2022-10-31T05:33:25.000Z,9.55
2022-10-31T05:35:51.543Z,14.75
2022-10-31T05:38:18.117Z,12.52
2022-10-31T05:40:44.762Z,8.77
2022-10-31T05:43:17.421Z,13.82
2022-10-31T05:45:44.012Z,13.35
2022-10-31T05:48:10.538Z,15.13
2022-10-31T05:50:37.262Z,12.57
2022-10-31T05:53:05.966Z,12.45
2022-10-31T05:55:33.286Z,19.40
2022-10-31T05:58:00.326Z,12.77
2022-10-31T06:00:27.976Z,14.38
2022-10-31T06:03:06.229Z,14.90
2022-10-31T06:05:33.230Z,15.80
2022-10-31T06:08:00.680Z,15.13
2022-10-31T06:10:28.012Z,16.75
2022-10-31T06:12:54.889Z,13.65
2022-10-31T06:15:24.333Z,13.95
2022-10-31T06:18:03.691Z,13.80
2022-10-31T06:20:30.546Z,16.17
2022-10-31T06:22:57.253Z,14.57
2022-10-31T06:25:24.205Z,15.07
2022-10-31T06:27:50.807Z,13.05
2022-10-31T06:30:17.461Z,14.35
2022-10-31T06:32:44.165Z,14.70
2022-10-31T06:35:11.221Z,12.50
2022-10-31T06:37:38.693Z,16.33
2022-10-31T06:40:05.925Z,13.93
2022-10-31T06:42:32.595Z,13.50
2022-10-31T06:44:59.172Z,13.02
2022-10-31T06:47:25.717Z,14.75
2022-10-31T06:49:52.263Z,16.92
2022-10-31T06:52:18.824Z,11.55
2022-10-31T06:54:45.346Z,14.23
2022-10-31T06:57:12.042Z,17.27
2022-10-31T06:59:38.975Z,18.58
2022-10-31T07:02:06.060Z,14.75
2022-10-31T07:04:33.867Z,16.77
2022-10-31T07:07:00.584Z,18.90
2022-10-31T07:09:27.321Z,15.43
2022-10-31T07:11:54.364Z,13.60
2022-10-31T07:14:20.978Z,15.57
2022-10-31T07:16:51.808Z,12.73
2022-10-31T07:19:18.935Z,14.85
2022-10-31T07:21:45.563Z,13.95
2022-10-31T07:24:12.103Z,11.65
2022-10-31T07:26:38.721Z,12.85
2022-10-31T07:29:06.398Z,16.50
2022-10-31T07:31:33.051Z,15.50
2022-10-31T07:33:59.658Z,18.92
2022-10-31T07:36:26.295Z,12.52
2022-10-31T07:38:52.860Z,11.52
2022-10-31T07:41:19.444Z,12.18
2022-10-31T07:43:46.507Z,15.02
2022-10-31T07:46:13.118Z,15.18
2022-10-31T07:48:39.678Z,17.38
2022-10-31T07:51:07.825Z,11.68
2022-10-31T07:53:34.464Z,14.65
2022-10-31T07:56:01.072Z,14.10
2022-10-31T07:58:27.729Z,18.65
2022-10-31T08:00:54.447Z,15.18
2022-10-31T08:03:21.202Z,16.08
2022-10-31T08:05:48.274Z,12.77
2022-10-31T08:08:17.176Z,13.80
2022-10-31T08:10:43.875Z,14.20
2022-10-31T08:13:13.030Z,13.68
2022-10-31T08:15:42.269Z,16.15
2022-10-31T08:18:14.879Z,14.38
2022-10-31T08:20:45.043Z,18.30
2022-10-31T08:23:13.272Z,18.10
2022-10-31T08:25:40.252Z,15.27
2022-10-31T08:28:09.241Z,13.40
2022-10-31T08:30:37.153Z,14.50
2022-10-31T08:33:18.707Z,14.85
2022-10-31T08:35:45.929Z,12.60
2022-10-31T08:38:13.898Z,18.67
2022-10-31T08:40:40.822Z,19.00
2022-10-31T08:43:12.571Z,17.92
2022-10-31T08:45:39.239Z,16.67
2022-10-31T08:48:09.942Z,14.35
2022-10-31T08:50:37.481Z,12.52
2022-10-31T08:53:06.782Z,15.23
2022-10-31T08:55:37.839Z,14.48
2022-10-31T08:58:16.753Z,14.25
2022-10-31T09:00:43.613Z,14.77
2022-10-31T09:03:13.326Z,15.48
2022-10-31T09:05:40.653Z,15.25
2022-10-31T09:08:13.135Z,16.30
2022-10-31T09:10:43.406Z,14.35
2022-10-31T09:13:11.063Z,16.67
2022-10-31T09:15:40.598Z,13.07
2022-10-31T09:18:08.683Z,12.35
2022-10-31T09:20:37.136Z,12.70
2022-10-31T09:23:23.685Z,17.42
2022-10-31T09:25:52.841Z,16.58
2022-10-31T09:28:21.669Z,16.40
2022-10-31T09:30:50.454Z,13.32
2022-10-31T09:33:17.617Z,14.93
2022-10-31T09:35:44.408Z,16.45
2022-10-31T09:38:20.072Z,16.48
2022-10-31T09:41:07.393Z,13.35
2022-10-31T09:43:42.887Z,15.43
2022-10-31T09:46:19.988Z,13.60
2022-10-31T09:49:14.445Z,16.13
2022-10-31T09:51:53.204Z,14.98
2022-10-31T09:54:49.970Z,16.48
2022-10-31T09:57:20.578Z,14.77
2022-10-31T09:59:49.167Z,14.30
2022-10-31T10:02:43.661Z,14.80
2022-10-31T10:05:13.526Z,16.02
2022-10-31T10:08:03.013Z,14.60
2022-10-31T10:10:29.656Z,12.70
2022-10-31T10:13:17.387Z,15.68
2022-10-31T10:15:53.119Z,13.82
2022-10-31T10:18:41.255Z,15.27
2022-10-31T10:21:14.106Z,18.40
2022-10-31T10:23:46.513Z,13.65
2022-10-31T10:26:22.982Z,17.88
2022-10-31T10:29:15.780Z,15.02
2022-10-31T10:31:46.758Z,11.00
2022-10-31T10:34:19.694Z,15.02
2022-10-31T10:36:54.919Z,16.80
2022-10-31T10:42:09.725Z,11.95
2022-10-31T10:45:03.359Z,13.02
2022-10-31T10:47:41.319Z,17.13
2022-10-31T10:50:23.720Z,16.20
2022-10-31T10:53:22.168Z,13.50
2022-10-31T10:56:20.099Z,14.25
2022-10-31T10:58:46.707Z,13.93
2022-10-31T11:03:43.081Z,15.90
2022-10-31T11:06:26.754Z,11.05
2022-10-31T11:08:53.940Z,13.18
2022-10-31T11:11:33.451Z,13.43
2022-10-31T11:14:06.614Z,11.90
2022-10-31T11:16:41.559Z,15.50
2022-10-31T11:19:24.203Z,13.77
2022-10-31T11:21:58.306Z,13.30
2022-10-31T11:24:28.294Z,12.93
2022-10-31T11:27:21.364Z,13.52
2022-10-31T11:29:49.462Z,14.05
2022-10-31T11:32:27.852Z,13.40
2022-10-31T11:34:58.171Z,12.50
2022-10-31T11:37:28.155Z,14.85
2022-10-31T11:40:06.270Z,10.35
2022-10-31T11:42:42.887Z,12.25
2022-10-31T11:45:18.588Z,13.63
2022-10-31T11:47:48.981Z,14.32
2022-10-31T11:50:30.468Z,16.73
2022-10-31T11:52:57.233Z,12.40
2022-10-31T11:55:32.087Z,14.65
2022-10-31T11:57:58.981Z,16.55
2022-10-31T12:00:34.927Z,13.00
2022-10-31T12:03:22.815Z,18.27
2022-10-31T12:06:18.882Z,14.40
2022-10-31T12:08:47.604Z,15.30
2022-10-31T12:11:33.162Z,13.50
2022-10-31T12:17:04.811Z,13.20
2022-10-31T12:19:56.349Z,16.52
2022-10-31T12:22:51.673Z,15.75
2022-10-31T12:25:23.110Z,15.10
2022-10-31T12:27:55.757Z,15.45
2022-10-31T12:30:28.111Z,14.50
2022-10-31T12:33:25.637Z,16.45
2022-10-31T12:36:15.181Z,16.50
2022-10-31T12:39:06.739Z,17.08
2022-10-31T12:41:46.795Z,13.52
2022-10-31T12:44:28.226Z,10.52
2022-10-31T12:47:19.517Z,15.07
2022-10-31T12:49:46.084Z,15.35
2022-10-31T12:52:28.218Z,16.13
2022-10-31T12:55:04.194Z,13.75
2022-10-31T12:57:37.104Z,19.83
2022-10-31T13:00:12.797Z,17.38
2022-10-31T13:02:57.370Z,18.15
2022-10-31T13:05:37.979Z,13.65
2022-10-31T13:08:10.717Z,17.20
2022-10-31T13:10:58.415Z,15.35
2022-10-31T13:13:37.055Z,15.77
2022-10-31T13:16:17.734Z,15.05
2022-10-31T13:19:11.360Z,17.13
2022-10-31T13:21:46.904Z,16.27
2022-10-31T13:24:20.970Z,14.27
2022-10-31T13:26:54.960Z,13.15
2022-10-31T13:29:34.194Z,15.27
2022-10-31T13:32:05.174Z,15.38
2022-10-31T13:34:39.424Z,12.70
2022-10-31T13:37:36.047Z,15.23
2022-10-31T13:40:16.005Z,15.60
2022-10-31T13:43:10.046Z,14.15
2022-10-31T13:45:36.595Z,14.98
2022-10-31T13:48:15.325Z,16.20
2022-10-31T13:50:44.578Z,14.18
2022-10-31T13:53:34.254Z,13.82
2022-10-31T13:56:10.102Z,12.93
2022-10-31T13:58:37.324Z,16.67
2022-10-31T14:01:17.328Z,14.15
2022-10-31T14:04:06.155Z,11.35
2022-10-31T14:06:45.372Z,14.98
2022-10-31T14:09:29.089Z,16.98
2022-10-31T14:11:56.864Z,9.25
2022-10-31T14:14:32.676Z,12.68
2022-10-31T14:17:00.092Z,13.48
2022-10-31T14:19:27.599Z,16.17
2022-10-31T14:21:54.760Z,14.48
2022-10-31T14:24:24.114Z,14.80
2022-10-31T14:27:02.987Z,14.50
2022-10-31T14:29:34.630Z,15.65
2022-10-31T14:32:14.913Z,13.15
2022-10-31T14:34:59.552Z,15.43
2022-10-31T14:37:46.410Z,15.43
2022-10-31T14:40:39.054Z,16.63
2022-10-31T14:43:48.115Z,15.90
2022-10-31T14:46:48.830Z,12.52
2022-10-31T14:49:37.490Z,19.73
2022-10-31T14:52:07.810Z,14.93
2022-10-31T14:54:44.815Z,16.20
2022-10-31T14:57:21.726Z,14.52
2022-10-31T14:59:59.212Z,17.60
2022-10-31T15:03:08.123Z,17.83
2022-10-31T15:05:36.867Z,16.80
2022-10-31T15:08:03.660Z,15.95
2022-10-31T15:10:33.242Z,15.55
2022-10-31T15:13:11.367Z,14.73
2022-10-31T15:15:38.538Z,13.23
2022-10-31T15:18:06.201Z,15.95
2022-10-31T15:20:39.965Z,16.90
2022-10-31T15:23:11.448Z,14.85
2022-10-31T15:25:38.097Z,17.55
2022-10-31T15:28:15.108Z,18.58
2022-10-31T15:30:52.453Z,17.90
2022-10-31T15:33:48.123Z,12.60
2022-10-31T15:36:29.171Z,17.23
2022-10-31T15:38:58.644Z,15.23
2022-10-31T15:41:30.992Z,17.85
2022-10-31T15:44:02.828Z,18.38
2022-10-31T15:46:30.652Z,18.02
2022-10-31T15:48:57.722Z,19.02
2022-10-31T15:51:34.935Z,20.27
2022-10-31T15:54:02.027Z,14.10
2022-10-31T15:56:32.744Z,26.75
2022-10-31T15:59:01.074Z,22.55
2022-10-31T16:01:33.434Z,21.73
2022-10-31T16:04:11.043Z,18.23
2022-10-31T16:06:37.931Z,21.02
2022-10-31T16:09:21.744Z,14.93
2022-10-31T16:11:48.410Z,17.17
2022-10-31T16:14:25.288Z,16.65
2022-10-31T16:16:54.737Z,18.00
2022-10-31T16:19:35.437Z,16.65
2022-10-31T16:22:13.014Z,16.80
2022-10-31T16:24:47.387Z,16.50
2022-10-31T16:27:27.887Z,19.63
2022-10-31T16:29:55.173Z,25.25
2022-10-31T16:32:27.081Z,24.80
2022-10-31T16:35:12.976Z,25.75
2022-10-31T16:37:41.034Z,19.27
2022-10-31T16:40:09.809Z,21.95
2022-10-31T16:42:36.452Z,23.30
2022-10-31T16:45:03.162Z,22.95
2022-10-31T16:47:29.695Z,21.70
2022-10-31T16:50:00.644Z,21.10
2022-10-31T16:52:27.223Z,17.90
2022-10-31T16:54:54.425Z,18.15
2022-10-31T16:57:27.259Z,16.40
2022-10-31T16:59:57.139Z,17.83
2022-10-31T17:02:24.229Z,16.83
2022-10-31T17:04:53.876Z,19.85
2022-10-31T17:07:23.385Z,16.70
2022-10-31T17:09:49.987Z,19.92
2022-10-31T17:12:21.705Z,20.67
2022-10-31T17:14:52.219Z,20.42
2022-10-31T17:17:18.883Z,22.85
2022-10-31T17:19:45.439Z,20.92
2022-10-31T17:22:14.119Z,21.25
2022-10-31T17:24:41.045Z,22.05
2022-10-31T17:27:07.744Z,23.17
2022-10-31T17:29:35.416Z,22.98
2022-10-31T17:32:04.085Z,20.45
2022-10-31T17:34:30.890Z,19.55
2022-10-31T17:36:57.599Z,20.92
2022-10-31T17:39:24.167Z,21.63
2022-10-31T17:41:51.889Z,19.13
2022-10-31T17:44:19.192Z,18.05
2022-10-31T17:46:45.875Z,24.23
2022-10-31T17:49:12.590Z,21.83
2022-10-31T17:51:39.404Z,22.23
2022-10-31T17:54:06.903Z,21.38
2022-10-31T17:56:33.585Z,19.75
2022-10-31T17:59:00.207Z,18.73
2022-10-31T18:01:27.007Z,21.70
2022-10-31T18:03:53.638Z,19.75
2022-10-31T18:06:20.239Z,17.88
2022-10-31T18:08:46.902Z,20.42
2022-10-31T18:11:19.299Z,18.77
2022-10-31T18:13:45.956Z,21.05
2022-10-31T18:16:19.036Z,20.85
2022-10-31T18:18:53.400Z,21.73
2022-10-31T18:21:21.620Z,34.38
2022-10-31T18:23:48.567Z,29.13
2022-10-31T18:26:15.206Z,25.08
2022-10-31T18:28:41.854Z,24.85
2022-10-31T18:31:12.034Z,21.50
2022-10-31T18:33:40.122Z,21.25
2022-10-31T18:36:07.510Z,27.58
2022-10-31T18:38:37.558Z,31.15
2022-10-31T18:41:11.789Z,31.50
2022-10-31T18:43:38.995Z,29.52
2022-10-31T18:46:13.107Z,25.15
2022-10-31T18:48:44.180Z,25.05
2022-10-31T18:51:18.026Z,23.40
2022-10-31T18:53:56.741Z,22.90
2022-10-31T18:56:24.590Z,26.20
2022-10-31T18:58:54.433Z,27.73
2022-10-31T19:01:25.480Z,25.17
2022-10-31T19:03:56.091Z,26.38
2022-10-31T19:06:24.284Z,27.00
2022-10-31T19:08:58.969Z,32.72
2022-10-31T19:11:25.922Z,29.40
2022-10-31T19:13:52.567Z,24.60
2022-10-31T19:16:19.292Z,26.55
2022-10-31T19:18:45.883Z,25.58
2022-10-31T19:21:17.398Z,28.60
2022-10-31T19:23:45.155Z,27.05
2022-10-31T19:26:14.106Z,29.83
2022-10-31T19:28:42.151Z,28.75
2022-10-31T19:31:09.247Z,30.52
2022-10-31T19:33:36.687Z,43.47
2022-10-31T19:36:16.467Z,39.85
2022-10-31T19:38:45.509Z,44.00
2022-10-31T19:41:18.977Z,27.23
2022-10-31T19:43:45.801Z,26.98
2022-10-31T19:46:22.340Z,27.80
2022-10-31T19:48:55.076Z,25.42
2022-10-31T19:51:21.930Z,23.35
2022-10-31T19:53:49.710Z,25.23
2022-10-31T19:56:18.762Z,26.20
2022-10-31T19:58:45.606Z,23.27
2022-10-31T20:01:21.908Z,20.73
2022-10-31T20:03:49.638Z,22.52
2022-10-31T20:06:31.864Z,23.45
2022-10-31T20:08:59.652Z,19.67
2022-10-31T20:11:27.598Z,19.92
2022-10-31T20:13:58.750Z,15.82
2022-10-31T20:16:26.762Z,16.15
2022-10-31T20:18:53.761Z,22.90
2022-10-31T20:21:23.475Z,16.27
2022-10-31T20:23:54.350Z,21.80
2022-10-31T20:26:21.229Z,19.35
2022-10-31T20:28:47.857Z,18.00
2022-10-31T20:31:17.737Z,17.55
2022-10-31T20:33:44.686Z,16.85
2022-10-31T20:36:11.762Z,21.02
2022-10-31T20:38:40.185Z,19.38
2022-10-31T20:41:08.916Z,21.00
2022-10-31T20:43:36.558Z,22.67
2022-10-31T20:46:11.975Z,17.23
2022-10-31T20:48:38.921Z,15.23
2022-10-31T20:53:43.088Z,19.33
2022-10-31T20:56:12.840Z,19.55
2022-10-31T20:58:41.126Z,18.90
2022-10-31T21:01:19.379Z,19.88
2022-10-31T21:03:46.445Z,18.48
2022-10-31T21:06:13.414Z,22.60
2022-10-31T21:08:41.578Z,15.93
2022-10-31T21:11:11.555Z,16.50
2022-10-31T21:13:43.065Z,16.67
2022-10-31T21:16:12.151Z,14.15
2022-10-31T21:18:40.974Z,20.00
2022-10-31T21:21:13.703Z,17.23
2022-10-31T21:23:41.207Z,17.70
2022-10-31T21:26:10.866Z,29.10
2022-10-31T21:28:38.120Z,26.75
2022-10-31T21:31:09.707Z,21.42
2022-10-31T21:33:36.957Z,20.20
2022-10-31T21:36:04.615Z,24.92
2022-10-31T21:38:32.063Z,24.10
2022-10-31T21:41:03.912Z,22.98
2022-10-31T21:43:31.107Z,22.05
2022-10-31T21:46:05.672Z,21.08
2022-10-31T21:48:33.148Z,26.73
2022-10-31T21:51:08.921Z,20.48
2022-10-31T21:53:55.438Z,20.70
2022-10-31T21:56:22.935Z,17.25
2022-10-31T21:58:49.968Z,23.05
2022-10-31T22:01:16.750Z,24.50
2022-10-31T22:03:43.827Z,20.15
2022-10-31T22:06:12.599Z,18.52
2022-10-31T22:08:40.555Z,18.05
2022-10-31T22:11:09.505Z,19.40
2022-10-31T22:13:37.112Z,21.58
2022-10-31T22:16:09.237Z,19.33
2022-10-31T22:18:36.754Z,19.70
2022-10-31T22:21:26.385Z,18.58
2022-10-31T22:23:55.380Z,25.15
2022-10-31T22:26:22.900Z,17.33
2022-10-31T22:28:55.949Z,19.65
2022-10-31T22:31:24.118Z,16.40
2022-10-31T22:33:51.292Z,21.13
2022-10-31T22:36:23.155Z,18.23
2022-10-31T22:38:50.610Z,20.83
2022-10-31T22:41:19.960Z,16.58
2022-10-31T22:43:47.601Z,16.65
2022-10-31T22:46:32.421Z,21.48
2022-10-31T22:49:01.548Z,18.98
2022-10-31T22:51:30.193Z,18.05
2022-10-31T22:53:57.044Z,24.70
2022-10-31T22:56:26.942Z,19.20
2022-10-31T22:58:54.446Z,24.10
2022-10-31T23:01:24.940Z,23.65
2022-10-31T23:03:51.835Z,19.75
2022-10-31T23:06:23.433Z,19.33
2022-10-31T23:08:51.214Z,22.48
2022-10-31T23:11:20.114Z,22.52
2022-10-31T23:14:07.070Z,21.02
2022-10-31T23:16:34.936Z,23.45
2022-10-31T23:19:03.079Z,20.58
2022-10-31T23:21:48.202Z,21.77
2022-10-31T23:24:14.859Z,23.85
2022-10-31T23:27:00.026Z,20.23
2022-10-31T23:29:26.558Z,23.17
2022-10-31T23:31:55.923Z,18.42
2022-10-31T23:34:22.897Z,20.02
2022-10-31T23:36:49.789Z,19.20
2022-10-31T23:39:19.885Z,19.83
2022-10-31T23:41:49.883Z,21.13
2022-10-31T23:44:16.546Z,23.73
2022-10-31T23:46:43.323Z,18.75
2022-10-31T23:49:09.982Z,19.73
2022-10-31T23:51:36.545Z,21.50
2022-10-31T23:54:03.227Z,19.75
2022-10-31T23:56:29.778Z,20.20
2022-10-31T23:58:56.363Z,19.98
